Terminal Aerodrome Forecast
Issued by NWS

Current Version | Previous Version | Graphics & Text | Print | Product List | Glossary On
Versions: 1 2 3 4 5 6 7 8 9 10 11 12 13 14
833
FTUS41 KILN 192338
TAFLUK
TAF
KLUK 192338Z 2000/2024 26010KT P6SM FEW080
     FM200200 26005KT P6SM FEW080
     FM201600 27008KT P6SM SCT060=

USA.gov is the U.S. government's official web portal to all federal, state and local government web resources and services.